sensor_id;sensor_type;location;lat;lon;timestamp;P1;durP1;ratioP1;P2;durP2;ratioP2
21527;SDS011;10925;49.102;-0.370;2023-02-15T00:01:51;155.30;;;68.65;;
21527;SDS011;10925;49.102;-0.370;2023-02-15T00:04:18;106.82;;;48.35;;
21527;SDS011;10925;49.102;-0.370;2023-02-15T00:06:44;94.32;;;46.17;;
21527;SDS011;10925;49.102;-0.370;2023-02-15T00:09:10;99.43;;;46.05;;
21527;SDS011;10925;49.102;-0.370;2023-02-15T00:11:36;94.65;;;47.40;;
21527;SDS011;10925;49.102;-0.370;2023-02-15T00:14:05;102.13;;;49.30;;
21527;SDS011;10925;49.102;-0.370;2023-02-15T00:16:31;105.70;;;52.10;;
21527;SDS011;10925;49.102;-0.370;2023-02-15T00:18:57;99.20;;;49.58;;
21527;SDS011;10925;49.102;-0.370;2023-02-15T00:21:27;94.53;;;48.78;;
21527;SDS011;10925;49.102;-0.370;2023-02-15T00:23:54;95.72;;;46.92;;
21527;SDS011;10925;49.102;-0.370;2023-02-15T00:26:19;88.88;;;45.58;;
21527;SDS011;10925;49.102;-0.370;2023-02-15T00:28:45;81.90;;;44.00;;
21527;SDS011;10925;49.102;-0.370;2023-02-15T00:31:11;84.10;;;41.45;;
21527;SDS011;10925;49.102;-0.370;2023-02-15T00:33:38;83.10;;;40.67;;
21527;SDS011;10925;49.102;-0.370;2023-02-15T00:36:04;70.72;;;36.78;;
21527;SDS011;10925;49.102;-0.370;2023-02-15T00:38:30;60.70;;;33.53;;
21527;SDS011;10925;49.102;-0.370;2023-02-15T00:40:57;57.33;;;30.48;;
21527;SDS011;10925;49.102;-0.370;2023-02-15T00:43:24;54.28;;;29.63;;
21527;SDS011;10925;49.102;-0.370;2023-02-15T00:45:49;49.03;;;27.95;;
21527;SDS011;10925;49.102;-0.370;2023-02-15T00:48:15;49.83;;;27.33;;
21527;SDS011;10925;49.102;-0.370;2023-02-15T00:50:46;45.58;;;25.08;;
21527;SDS011;10925;49.102;-0.370;2023-02-15T00:53:13;50.13;;;27.13;;
21527;SDS011;10925;49.102;-0.370;2023-02-15T00:55:39;47.03;;;25.67;;
21527;SDS011;10925;49.102;-0.370;2023-02-15T00:58:05;46.53;;;25.95;;
21527;SDS011;10925;49.102;-0.370;2023-02-15T01:00:33;55.22;;;26.92;;
21527;SDS011;10925;49.102;-0.370;2023-02-15T01:03:01;49.72;;;26.45;;
21527;SDS011;10925;49.102;-0.370;2023-02-15T01:05:26;50.78;;;28.02;;
21527;SDS011;10925;49.102;-0.370;2023-02-15T01:07:54;52.38;;;28.40;;
21527;SDS011;10925;49.102;-0.370;2023-02-15T01:10:21;58.00;;;26.67;;
21527;SDS011;10925;49.102;-0.370;2023-02-15T01:12:47;47.30;;;26.95;;
21527;SDS011;10925;49.102;-0.370;2023-02-15T01:15:13;52.13;;;28.20;;
21527;SDS011;10925;49.102;-0.370;2023-02-15T01:17:39;62.88;;;32.38;;
21527;SDS011;10925;49.102;-0.370;2023-02-15T01:23:07;58.55;;;31.27;;
21527;SDS011;10925;49.102;-0.370;2023-02-15T01:25:34;72.68;;;35.63;;
21527;SDS011;10925;49.102;-0.370;2023-02-15T01:28:00;86.40;;;40.40;;
21527;SDS011;10925;49.102;-0.370;2023-02-15T01:30:26;84.40;;;40.92;;
21527;SDS011;10925;49.102;-0.370;2023-02-15T01:32:51;93.93;;;43.88;;
21527;SDS011;10925;49.102;-0.370;2023-02-15T01:35:17;94.22;;;46.92;;
21527;SDS011;10925;49.102;-0.370;2023-02-15T01:37:43;80.05;;;39.05;;
21527;SDS011;10925;49.102;-0.370;2023-02-15T01:40:12;80.93;;;38.88;;
21527;SDS011;10925;49.102;-0.370;2023-02-15T01:42:38;85.53;;;39.28;;
21527;SDS011;10925;49.102;-0.370;2023-02-15T01:47:45;73.30;;;36.53;;
21527;SDS011;10925;49.102;-0.370;2023-02-15T01:50:15;74.05;;;37.63;;
21527;SDS011;10925;49.102;-0.370;2023-02-15T01:55:27;78.97;;;38.25;;
21527;SDS011;10925;49.102;-0.370;2023-02-15T01:57:54;93.47;;;45.85;;
21527;SDS011;10925;49.102;-0.370;2023-02-15T02:00:20;97.47;;;46.38;;
21527;SDS011;10925;49.102;-0.370;2023-02-15T02:02:47;98.30;;;42.17;;
21527;SDS011;10925;49.102;-0.370;2023-02-15T02:05:14;80.60;;;40.80;;
21527;SDS011;10925;49.102;-0.370;2023-02-15T02:07:41;96.93;;;46.75;;
21527;SDS011;10925;49.102;-0.370;2023-02-15T02:10:08;90.28;;;43.92;;
21527;SDS011;10925;49.102;-0.370;2023-02-15T02:12:34;93.07;;;46.03;;
21527;SDS011;10925;49.102;-0.370;2023-02-15T02:15:00;82.40;;;42.95;;
21527;SDS011;10925;49.102;-0.370;2023-02-15T02:25:23;79.63;;;40.67;;
21527;SDS011;10925;49.102;-0.370;2023-02-15T02:39:07;79.38;;;37.95;;
21527;SDS011;10925;49.102;-0.370;2023-02-15T02:41:51;70.67;;;34.93;;
21527;SDS011;10925;49.102;-0.370;2023-02-15T02:46:57;66.28;;;32.65;;
21527;SDS011;10925;49.102;-0.370;2023-02-15T02:49:35;65.38;;;34.58;;
21527;SDS011;10925;49.102;-0.370;2023-02-15T02:52:02;67.32;;;32.30;;
21527;SDS011;10925;49.102;-0.370;2023-02-15T02:54:28;64.65;;;33.08;;
21527;SDS011;10925;49.102;-0.370;2023-02-15T02:56:55;62.67;;;31.30;;
21527;SDS011;10925;49.102;-0.370;2023-02-15T02:59:26;65.78;;;32.38;;
21527;SDS011;10925;49.102;-0.370;2023-02-15T03:01:57;62.28;;;30.88;;
21527;SDS011;10925;49.102;-0.370;2023-02-15T03:04:26;61.67;;;30.73;;
21527;SDS011;10925;49.102;-0.370;2023-02-15T03:06:55;60.03;;;30.42;;
21527;SDS011;10925;49.102;-0.370;2023-02-15T03:12:00;58.50;;;30.52;;
21527;SDS011;10925;49.102;-0.370;2023-02-15T03:14:26;66.95;;;31.98;;
21527;SDS011;10925;49.102;-0.370;2023-02-15T03:16:54;62.15;;;31.10;;
21527;SDS011;10925;49.102;-0.370;2023-02-15T03:19:26;58.63;;;31.40;;
21527;SDS011;10925;49.102;-0.370;2023-02-15T03:21:56;62.40;;;31.02;;
21527;SDS011;10925;49.102;-0.370;2023-02-15T03:24:32;64.95;;;31.08;;
21527;SDS011;10925;49.102;-0.370;2023-02-15T03:26:59;59.75;;;31.00;;
21527;SDS011;10925;49.102;-0.370;2023-02-15T03:29:28;63.70;;;31.05;;
21527;SDS011;10925;49.102;-0.370;2023-02-15T03:31:57;68.43;;;32.15;;
21527;SDS011;10925;49.102;-0.370;2023-02-15T03:34:26;62.20;;;31.77;;
21527;SDS011;10925;49.102;-0.370;2023-02-15T03:39:20;57.17;;;30.42;;
21527;SDS011;10925;49.102;-0.370;2023-02-15T03:41:50;65.07;;;31.52;;
21527;SDS011;10925;49.102;-0.370;2023-02-15T03:46:50;64.32;;;32.83;;
21527;SDS011;10925;49.102;-0.370;2023-02-15T03:49:28;62.05;;;32.97;;
21527;SDS011;10925;49.102;-0.370;2023-02-15T03:51:56;68.32;;;33.90;;
21527;SDS011;10925;49.102;-0.370;2023-02-15T03:54:27;70.57;;;33.53;;
21527;SDS011;10925;49.102;-0.370;2023-02-15T03:57:25;64.32;;;32.00;;
21527;SDS011;10925;49.102;-0.370;2023-02-15T04:05:28;60.40;;;30.27;;
21527;SDS011;10925;49.102;-0.370;2023-02-15T04:07:55;59.28;;;30.58;;
21527;SDS011;10925;49.102;-0.370;2023-02-15T04:10:22;56.78;;;28.67;;
21527;SDS011;10925;49.102;-0.370;2023-02-15T04:13:08;57.90;;;28.65;;
21527;SDS011;10925;49.102;-0.370;2023-02-15T04:15:35;61.38;;;29.17;;
21527;SDS011;10925;49.102;-0.370;2023-02-15T04:18:19;52.80;;;27.45;;
21527;SDS011;10925;49.102;-0.370;2023-02-15T04:20:45;60.40;;;29.55;;
21527;SDS011;10925;49.102;-0.370;2023-02-15T04:23:31;57.70;;;28.88;;
21527;SDS011;10925;49.102;-0.370;2023-02-15T04:26:16;60.57;;;28.13;;
21527;SDS011;10925;49.102;-0.370;2023-02-15T04:28:42;53.78;;;27.58;;
21527;SDS011;10925;49.102;-0.370;2023-02-15T04:31:09;59.30;;;28.17;;
21527;SDS011;10925;49.102;-0.370;2023-02-15T04:33:37;59.10;;;29.10;;
21527;SDS011;10925;49.102;-0.370;2023-02-15T04:38:56;59.53;;;28.02;;
21527;SDS011;10925;49.102;-0.370;2023-02-15T04:41:23;59.25;;;28.70;;
21527;SDS011;10925;49.102;-0.370;2023-02-15T04:43:50;54.17;;;27.80;;
21527;SDS011;10925;49.102;-0.370;2023-02-15T04:46:17;56.85;;;27.50;;
21527;SDS011;10925;49.102;-0.370;2023-02-15T04:48:43;54.83;;;26.95;;
21527;SDS011;10925;49.102;-0.370;2023-02-15T04:51:09;55.55;;;28.58;;
21527;SDS011;10925;49.102;-0.370;2023-02-15T04:53:34;53.30;;;27.02;;
21527;SDS011;10925;49.102;-0.370;2023-02-15T04:56:00;53.42;;;26.63;;
21527;SDS011;10925;49.102;-0.370;2023-02-15T04:58:28;52.95;;;26.70;;
21527;SDS011;10925;49.102;-0.370;2023-02-15T05:00:55;48.45;;;25.88;;
21527;SDS011;10925;49.102;-0.370;2023-02-15T05:03:21;54.72;;;27.60;;
21527;SDS011;10925;49.102;-0.370;2023-02-15T05:05:47;56.42;;;27.92;;
21527;SDS011;10925;49.102;-0.370;2023-02-15T05:08:14;55.22;;;26.77;;
21527;SDS011;10925;49.102;-0.370;2023-02-15T05:10:40;51.80;;;26.33;;
21527;SDS011;10925;49.102;-0.370;2023-02-15T05:13:07;50.25;;;26.83;;
21527;SDS011;10925;49.102;-0.370;2023-02-15T05:15:34;47.63;;;26.10;;
21527;SDS011;10925;49.102;-0.370;2023-02-15T05:21:04;52.30;;;27.02;;
21527;SDS011;10925;49.102;-0.370;2023-02-15T05:23:31;52.35;;;26.48;;
21527;SDS011;10925;49.102;-0.370;2023-02-15T05:25:59;54.75;;;27.05;;
21527;SDS011;10925;49.102;-0.370;2023-02-15T05:28:43;49.88;;;25.65;;
21527;SDS011;10925;49.102;-0.370;2023-02-15T05:31:11;51.92;;;26.40;;
21527;SDS011;10925;49.102;-0.370;2023-02-15T05:33:39;50.50;;;26.13;;
21527;SDS011;10925;49.102;-0.370;2023-02-15T05:36:05;51.53;;;26.55;;
21527;SDS011;10925;49.102;-0.370;2023-02-15T05:38:31;51.70;;;25.52;;
21527;SDS011;10925;49.102;-0.370;2023-02-15T05:40:57;57.10;;;26.33;;
21527;SDS011;10925;49.102;-0.370;2023-02-15T05:43:23;54.58;;;26.98;;
21527;SDS011;10925;49.102;-0.370;2023-02-15T05:45:49;52.05;;;26.92;;
21527;SDS011;10925;49.102;-0.370;2023-02-15T05:48:15;53.50;;;26.73;;
21527;SDS011;10925;49.102;-0.370;2023-02-15T05:50:43;49.90;;;26.88;;
21527;SDS011;10925;49.102;-0.370;2023-02-15T05:53:11;51.95;;;26.02;;
21527;SDS011;10925;49.102;-0.370;2023-02-15T05:55:38;50.45;;;25.92;;
21527;SDS011;10925;49.102;-0.370;2023-02-15T05:58:05;54.22;;;26.60;;
21527;SDS011;10925;49.102;-0.370;2023-02-15T06:00:32;50.63;;;26.30;;
21527;SDS011;10925;49.102;-0.370;2023-02-15T06:03:00;51.83;;;26.33;;
21527;SDS011;10925;49.102;-0.370;2023-02-15T06:05:27;51.78;;;26.55;;
21527;SDS011;10925;49.102;-0.370;2023-02-15T06:07:55;52.47;;;26.88;;
21527;SDS011;10925;49.102;-0.370;2023-02-15T06:10:22;50.15;;;24.95;;
21527;SDS011;10925;49.102;-0.370;2023-02-15T06:12:49;54.35;;;26.83;;
21527;SDS011;10925;49.102;-0.370;2023-02-15T06:15:16;54.28;;;28.15;;
21527;SDS011;10925;49.102;-0.370;2023-02-15T06:17:43;57.03;;;29.23;;
21527;SDS011;10925;49.102;-0.370;2023-02-15T06:20:11;53.78;;;27.88;;
21527;SDS011;10925;49.102;-0.370;2023-02-15T06:22:38;56.80;;;27.98;;
21527;SDS011;10925;49.102;-0.370;2023-02-15T06:25:05;51.75;;;26.50;;
21527;SDS011;10925;49.102;-0.370;2023-02-15T06:27:31;51.40;;;26.63;;
21527;SDS011;10925;49.102;-0.370;2023-02-15T06:29:56;55.97;;;27.38;;
21527;SDS011;10925;49.102;-0.370;2023-02-15T06:32:22;51.83;;;25.83;;
21527;SDS011;10925;49.102;-0.370;2023-02-15T06:34:47;51.80;;;26.80;;
21527;SDS011;10925;49.102;-0.370;2023-02-15T06:40:18;52.78;;;27.25;;
21527;SDS011;10925;49.102;-0.370;2023-02-15T06:42:45;51.38;;;26.02;;
21527;SDS011;10925;49.102;-0.370;2023-02-15T06:45:12;47.33;;;26.00;;
21527;SDS011;10925;49.102;-0.370;2023-02-15T06:47:39;54.50;;;26.40;;
21527;SDS011;10925;49.102;-0.370;2023-02-15T06:50:07;53.00;;;26.35;;
21527;SDS011;10925;49.102;-0.370;2023-02-15T06:52:34;50.90;;;25.70;;
21527;SDS011;10925;49.102;-0.370;2023-02-15T06:55:01;48.95;;;25.67;;
21527;SDS011;10925;49.102;-0.370;2023-02-15T06:57:26;46.20;;;25.83;;
21527;SDS011;10925;49.102;-0.370;2023-02-15T06:59:53;49.60;;;24.77;;
21527;SDS011;10925;49.102;-0.370;2023-02-15T07:02:20;50.42;;;25.35;;
21527;SDS011;10925;49.102;-0.370;2023-02-15T07:04:46;50.10;;;24.20;;
21527;SDS011;10925;49.102;-0.370;2023-02-15T07:07:13;50.67;;;24.52;;
21527;SDS011;10925;49.102;-0.370;2023-02-15T07:09:40;44.55;;;24.67;;
21527;SDS011;10925;49.102;-0.370;2023-02-15T07:12:09;41.03;;;22.73;;
21527;SDS011;10925;49.102;-0.370;2023-02-15T07:20:04;46.22;;;23.52;;
21527;SDS011;10925;49.102;-0.370;2023-02-15T07:22:32;44.63;;;24.38;;
21527;SDS011;10925;49.102;-0.370;2023-02-15T07:25:00;56.78;;;26.83;;
21527;SDS011;10925;49.102;-0.370;2023-02-15T07:27:27;50.33;;;27.65;;
21527;SDS011;10925;49.102;-0.370;2023-02-15T07:29:53;56.33;;;29.23;;
21527;SDS011;10925;49.102;-0.370;2023-02-15T07:32:20;53.95;;;28.45;;
21527;SDS011;10925;49.102;-0.370;2023-02-15T07:34:47;54.92;;;27.75;;
21527;SDS011;10925;49.102;-0.370;2023-02-15T07:37:13;55.55;;;28.88;;
21527;SDS011;10925;49.102;-0.370;2023-02-15T07:39:38;56.35;;;30.17;;
21527;SDS011;10925;49.102;-0.370;2023-02-15T07:42:04;49.63;;;28.17;;
21527;SDS011;10925;49.102;-0.370;2023-02-15T07:44:29;53.78;;;27.15;;
21527;SDS011;10925;49.102;-0.370;2023-02-15T07:46:55;53.20;;;26.80;;
21527;SDS011;10925;49.102;-0.370;2023-02-15T07:49:21;51.40;;;27.95;;
21527;SDS011;10925;49.102;-0.370;2023-02-15T07:51:47;50.58;;;28.23;;
21527;SDS011;10925;49.102;-0.370;2023-02-15T07:54:12;53.47;;;27.73;;
21527;SDS011;10925;49.102;-0.370;2023-02-15T07:56:38;51.97;;;27.05;;
21527;SDS011;10925;49.102;-0.370;2023-02-15T07:59:03;51.88;;;26.75;;
21527;SDS011;10925;49.102;-0.370;2023-02-15T08:01:33;46.88;;;26.33;;
21527;SDS011;10925;49.102;-0.370;2023-02-15T08:03:58;53.25;;;25.10;;
21527;SDS011;10925;49.102;-0.370;2023-02-15T08:06:25;48.95;;;25.65;;
21527;SDS011;10925;49.102;-0.370;2023-02-15T08:08:51;47.70;;;25.42;;
21527;SDS011;10925;49.102;-0.370;2023-02-15T08:11:21;44.65;;;25.45;;
21527;SDS011;10925;49.102;-0.370;2023-02-15T08:13:48;42.20;;;23.30;;
21527;SDS011;10925;49.102;-0.370;2023-02-15T08:16:14;51.17;;;26.30;;
21527;SDS011;10925;49.102;-0.370;2023-02-15T08:18:39;49.45;;;26.27;;
21527;SDS011;10925;49.102;-0.370;2023-02-15T08:21:05;49.92;;;24.95;;
21527;SDS011;10925;49.102;-0.370;2023-02-15T08:23:30;51.63;;;25.48;;
21527;SDS011;10925;49.102;-0.370;2023-02-15T08:25:59;49.75;;;24.40;;
21527;SDS011;10925;49.102;-0.370;2023-02-15T08:28:24;49.63;;;25.48;;
21527;SDS011;10925;49.102;-0.370;2023-02-15T08:30:50;48.35;;;25.67;;
21527;SDS011;10925;49.102;-0.370;2023-02-15T08:33:15;49.15;;;25.67;;
21527;SDS011;10925;49.102;-0.370;2023-02-15T08:35:41;47.13;;;25.95;;
21527;SDS011;10925;49.102;-0.370;2023-02-15T08:38:06;46.33;;;22.20;;
21527;SDS011;10925;49.102;-0.370;2023-02-15T08:40:34;42.10;;;22.25;;
21527;SDS011;10925;49.102;-0.370;2023-02-15T08:43:01;45.58;;;22.20;;
21527;SDS011;10925;49.102;-0.370;2023-02-15T08:45:28;44.15;;;21.20;;
21527;SDS011;10925;49.102;-0.370;2023-02-15T08:47:54;35.63;;;18.40;;
21527;SDS011;10925;49.102;-0.370;2023-02-15T08:50:20;38.08;;;17.75;;
21527;SDS011;10925;49.102;-0.370;2023-02-15T08:52:45;33.42;;;16.83;;
21527;SDS011;10925;49.102;-0.370;2023-02-15T08:55:16;33.78;;;15.80;;
21527;SDS011;10925;49.102;-0.370;2023-02-15T08:57:45;33.00;;;15.07;;
21527;SDS011;10925;49.102;-0.370;2023-02-15T09:00:24;35.47;;;14.98;;
21527;SDS011;10925;49.102;-0.370;2023-02-15T09:02:50;30.50;;;14.07;;
21527;SDS011;10925;49.102;-0.370;2023-02-15T09:05:16;32.17;;;14.85;;
21527;SDS011;10925;49.102;-0.370;2023-02-15T09:07:41;35.58;;;13.95;;
21527;SDS011;10925;49.102;-0.370;2023-02-15T09:10:09;31.58;;;14.90;;
21527;SDS011;10925;49.102;-0.370;2023-02-15T09:12:40;31.05;;;14.05;;
21527;SDS011;10925;49.102;-0.370;2023-02-15T09:15:08;29.55;;;13.18;;
21527;SDS011;10925;49.102;-0.370;2023-02-15T09:17:33;22.33;;;13.05;;
21527;SDS011;10925;49.102;-0.370;2023-02-15T09:19:59;25.33;;;13.68;;
21527;SDS011;10925;49.102;-0.370;2023-02-15T09:22:25;24.83;;;12.93;;
21527;SDS011;10925;49.102;-0.370;2023-02-15T09:24:50;27.63;;;15.25;;
21527;SDS011;10925;49.102;-0.370;2023-02-15T09:27:16;32.53;;;17.48;;
21527;SDS011;10925;49.102;-0.370;2023-02-15T09:29:42;34.25;;;19.20;;
21527;SDS011;10925;49.102;-0.370;2023-02-15T09:32:07;40.90;;;20.75;;
21527;SDS011;10925;49.102;-0.370;2023-02-15T09:34:33;44.35;;;22.52;;
21527;SDS011;10925;49.102;-0.370;2023-02-15T09:37:04;42.40;;;21.92;;
21527;SDS011;10925;49.102;-0.370;2023-02-15T09:39:30;39.58;;;21.50;;
21527;SDS011;10925;49.102;-0.370;2023-02-15T10:11:11;23.27;;;14.00;;
21527;SDS011;10925;49.102;-0.370;2023-02-15T10:27:49;24.38;;;12.63;;
21527;SDS011;10925;49.102;-0.370;2023-02-15T10:30:19;24.80;;;11.63;;
21527;SDS011;10925;49.102;-0.370;2023-02-15T10:35:20;19.70;;;10.82;;
21527;SDS011;10925;49.102;-0.370;2023-02-15T10:40:28;22.67;;;11.65;;
21527;SDS011;10925;49.102;-0.370;2023-02-15T10:48:10;19.70;;;11.60;;
21527;SDS011;10925;49.102;-0.370;2023-02-15T10:50:55;21.15;;;12.00;;
21527;SDS011;10925;49.102;-0.370;2023-02-15T10:56:24;20.20;;;11.82;;
21527;SDS011;10925;49.102;-0.370;2023-02-15T11:01:40;24.27;;;12.32;;
21527;SDS011;10925;49.102;-0.370;2023-02-15T11:06:57;24.58;;;12.90;;
21527;SDS011;10925;49.102;-0.370;2023-02-15T11:09:28;20.85;;;12.77;;
21527;SDS011;10925;49.102;-0.370;2023-02-15T11:11:57;20.83;;;12.88;;
21527;SDS011;10925;49.102;-0.370;2023-02-15T11:17:16;24.67;;;13.70;;
21527;SDS011;10925;49.102;-0.370;2023-02-15T11:22:27;21.00;;;12.55;;
21527;SDS011;10925;49.102;-0.370;2023-02-15T11:24:53;21.63;;;13.10;;
21527;SDS011;10925;49.102;-0.370;2023-02-15T11:27:23;22.35;;;13.48;;
21527;SDS011;10925;49.102;-0.370;2023-02-15T11:32:44;27.98;;;13.35;;
21527;SDS011;10925;49.102;-0.370;2023-02-15T11:40:36;22.50;;;12.65;;
21527;SDS011;10925;49.102;-0.370;2023-02-15T11:43:10;20.35;;;13.40;;
21527;SDS011;10925;49.102;-0.370;2023-02-15T11:45:38;21.50;;;12.43;;
21527;SDS011;10925;49.102;-0.370;2023-02-15T11:48:10;23.67;;;13.32;;
21527;SDS011;10925;49.102;-0.370;2023-02-15T11:50:36;25.20;;;12.85;;
21527;SDS011;10925;49.102;-0.370;2023-02-15T11:53:06;22.63;;;13.98;;
21527;SDS011;10925;49.102;-0.370;2023-02-15T11:55:32;19.85;;;13.30;;
21527;SDS011;10925;49.102;-0.370;2023-02-15T12:00:38;24.52;;;14.40;;
21527;SDS011;10925;49.102;-0.370;2023-02-15T12:03:26;23.13;;;14.68;;
21527;SDS011;10925;49.102;-0.370;2023-02-15T12:06:00;20.70;;;13.65;;
21527;SDS011;10925;49.102;-0.370;2023-02-15T12:08:26;21.77;;;14.15;;
21527;SDS011;10925;49.102;-0.370;2023-02-15T12:13:23;23.77;;;14.85;;
21527;SDS011;10925;49.102;-0.370;2023-02-15T12:15:50;20.52;;;13.43;;
21527;SDS011;10925;49.102;-0.370;2023-02-15T12:21:01;22.50;;;14.95;;
21527;SDS011;10925;49.102;-0.370;2023-02-15T12:23:30;29.33;;;15.10;;
21527;SDS011;10925;49.102;-0.370;2023-02-15T12:28:48;25.40;;;14.38;;
21527;SDS011;10925;49.102;-0.370;2023-02-15T12:34:21;20.05;;;13.07;;
21527;SDS011;10925;49.102;-0.370;2023-02-15T12:36:48;21.20;;;13.88;;
21527;SDS011;10925;49.102;-0.370;2023-02-15T12:44:26;22.20;;;14.65;;
21527;SDS011;10925;49.102;-0.370;2023-02-15T12:47:10;22.20;;;14.25;;
21527;SDS011;10925;49.102;-0.370;2023-02-15T12:49:44;23.17;;;15.00;;
21527;SDS011;10925;49.102;-0.370;2023-02-15T12:54:45;24.73;;;15.18;;
21527;SDS011;10925;49.102;-0.370;2023-02-15T12:57:13;28.35;;;14.70;;
21527;SDS011;10925;49.102;-0.370;2023-02-15T12:59:50;22.75;;;14.45;;
21527;SDS011;10925;49.102;-0.370;2023-02-15T13:02:27;25.38;;;14.90;;
21527;SDS011;10925;49.102;-0.370;2023-02-15T13:04:54;22.15;;;13.90;;
21527;SDS011;10925;49.102;-0.370;2023-02-15T13:07:20;22.33;;;14.88;;
21527;SDS011;10925;49.102;-0.370;2023-02-15T13:10:17;24.38;;;15.32;;
21527;SDS011;10925;49.102;-0.370;2023-02-15T13:12:46;20.13;;;13.45;;
21527;SDS011;10925;49.102;-0.370;2023-02-15T13:15:23;23.65;;;13.55;;
21527;SDS011;10925;49.102;-0.370;2023-02-15T13:17:49;22.63;;;13.27;;
21527;SDS011;10925;49.102;-0.370;2023-02-15T13:20:17;22.00;;;13.25;;
21527;SDS011;10925;49.102;-0.370;2023-02-15T13:22:45;23.13;;;13.48;;
21527;SDS011;10925;49.102;-0.370;2023-02-15T13:25:22;24.40;;;13.43;;
21527;SDS011;10925;49.102;-0.370;2023-02-15T13:27:58;19.33;;;12.32;;
21527;SDS011;10925;49.102;-0.370;2023-02-15T13:30:35;20.77;;;12.27;;
21527;SDS011;10925;49.102;-0.370;2023-02-15T13:33:04;16.60;;;11.77;;
21527;SDS011;10925;49.102;-0.370;2023-02-15T13:35:37;21.00;;;12.55;;
21527;SDS011;10925;49.102;-0.370;2023-02-15T13:38:22;16.15;;;11.48;;
21527;SDS011;10925;49.102;-0.370;2023-02-15T13:40:55;20.45;;;11.00;;
21527;SDS011;10925;49.102;-0.370;2023-02-15T13:43:28;18.83;;;12.25;;
21527;SDS011;10925;49.102;-0.370;2023-02-15T13:46:07;24.88;;;12.30;;
21527;SDS011;10925;49.102;-0.370;2023-02-15T14:01:40;17.60;;;11.15;;
21527;SDS011;10925;49.102;-0.370;2023-02-15T14:09:24;18.65;;;11.07;;
21527;SDS011;10925;49.102;-0.370;2023-02-15T14:17:11;16.42;;;11.07;;
21527;SDS011;10925;49.102;-0.370;2023-02-15T14:25:18;16.17;;;10.55;;
21527;SDS011;10925;49.102;-0.370;2023-02-15T14:27:50;17.00;;;10.82;;
21527;SDS011;10925;49.102;-0.370;2023-02-15T14:30:20;14.80;;;9.85;;
21527;SDS011;10925;49.102;-0.370;2023-02-15T14:32:51;14.52;;;9.75;;
21527;SDS011;10925;49.102;-0.370;2023-02-15T14:35:23;17.98;;;9.77;;
21527;SDS011;10925;49.102;-0.370;2023-02-15T14:46:41;18.17;;;9.63;;
21527;SDS011;10925;49.102;-0.370;2023-02-15T14:49:14;14.48;;;9.23;;
21527;SDS011;10925;49.102;-0.370;2023-02-15T14:56:46;13.73;;;9.00;;
21527;SDS011;10925;49.102;-0.370;2023-02-15T14:59:14;17.45;;;10.43;;
21527;SDS011;10925;49.102;-0.370;2023-02-15T15:01:50;17.08;;;9.93;;
21527;SDS011;10925;49.102;-0.370;2023-02-15T15:04:23;16.13;;;9.70;;
21527;SDS011;10925;49.102;-0.370;2023-02-15T15:09:43;17.90;;;10.32;;
21527;SDS011;10925;49.102;-0.370;2023-02-15T15:12:35;15.52;;;9.90;;
21527;SDS011;10925;49.102;-0.370;2023-02-15T15:15:01;16.60;;;10.07;;
21527;SDS011;10925;49.102;-0.370;2023-02-15T15:20:08;18.85;;;11.85;;
21527;SDS011;10925;49.102;-0.370;2023-02-15T15:22:39;16.30;;;10.82;;
21527;SDS011;10925;49.102;-0.370;2023-02-15T15:41:03;16.42;;;11.07;;
21527;SDS011;10925;49.102;-0.370;2023-02-15T15:43:40;17.20;;;10.48;;
21527;SDS011;10925;49.102;-0.370;2023-02-15T15:48:44;18.48;;;10.65;;
21527;SDS011;10925;49.102;-0.370;2023-02-15T15:51:17;17.20;;;11.02;;
21527;SDS011;10925;49.102;-0.370;2023-02-15T15:53:44;21.63;;;11.93;;
21527;SDS011;10925;49.102;-0.370;2023-02-15T15:56:13;20.00;;;11.45;;
21527;SDS011;10925;49.102;-0.370;2023-02-15T15:58:42;19.65;;;12.02;;
21527;SDS011;10925;49.102;-0.370;2023-02-15T16:01:10;16.75;;;10.57;;
21527;SDS011;10925;49.102;-0.370;2023-02-15T16:03:53;15.30;;;10.25;;
21527;SDS011;10925;49.102;-0.370;2023-02-15T16:06:28;18.80;;;11.02;;
21527;SDS011;10925;49.102;-0.370;2023-02-15T16:08:55;18.55;;;10.80;;
21527;SDS011;10925;49.102;-0.370;2023-02-15T16:11:25;17.52;;;10.65;;
21527;SDS011;10925;49.102;-0.370;2023-02-15T16:13:53;17.40;;;11.32;;
21527;SDS011;10925;49.102;-0.370;2023-02-15T16:16:22;18.42;;;11.65;;
21527;SDS011;10925;49.102;-0.370;2023-02-15T16:18:49;20.65;;;12.75;;
21527;SDS011;10925;49.102;-0.370;2023-02-15T16:21:18;22.33;;;12.60;;
21527;SDS011;10925;49.102;-0.370;2023-02-15T16:23:56;19.08;;;12.70;;
21527;SDS011;10925;49.102;-0.370;2023-02-15T16:29:16;22.98;;;13.73;;
21527;SDS011;10925;49.102;-0.370;2023-02-15T16:31:43;23.77;;;13.65;;
21527;SDS011;10925;49.102;-0.370;2023-02-15T16:34:22;24.02;;;14.75;;
21527;SDS011;10925;49.102;-0.370;2023-02-15T16:36:48;24.08;;;14.80;;
21527;SDS011;10925;49.102;-0.370;2023-02-15T16:39:19;22.08;;;14.20;;
21527;SDS011;10925;49.102;-0.370;2023-02-15T16:41:46;20.75;;;14.77;;
21527;SDS011;10925;49.102;-0.370;2023-02-15T16:44:16;25.33;;;15.65;;
21527;SDS011;10925;49.102;-0.370;2023-02-15T16:46:45;28.83;;;18.17;;
21527;SDS011;10925;49.102;-0.370;2023-02-15T16:49:20;28.70;;;18.00;;
21527;SDS011;10925;49.102;-0.370;2023-02-15T16:51:53;34.72;;;20.25;;
21527;SDS011;10925;49.102;-0.370;2023-02-15T16:54:21;47.60;;;28.27;;
21527;SDS011;10925;49.102;-0.370;2023-02-15T16:56:48;36.88;;;23.85;;
21527;SDS011;10925;49.102;-0.370;2023-02-15T16:59:56;39.42;;;22.70;;
21527;SDS011;10925;49.102;-0.370;2023-02-15T17:02:03;38.05;;;24.60;;
21527;SDS011;10925;49.102;-0.370;2023-02-15T17:04:30;50.47;;;32.17;;
21527;SDS011;10925;49.102;-0.370;2023-02-15T17:07:06;52.35;;;32.22;;
21527;SDS011;10925;49.102;-0.370;2023-02-15T17:09:40;45.90;;;27.38;;
21527;SDS011;10925;49.102;-0.370;2023-02-15T17:12:35;37.53;;;24.48;;
21527;SDS011;10925;49.102;-0.370;2023-02-15T17:15:01;42.80;;;25.73;;
21527;SDS011;10925;49.102;-0.370;2023-02-15T17:17:30;41.03;;;24.52;;
21527;SDS011;10925;49.102;-0.370;2023-02-15T17:19:57;37.75;;;24.10;;
21527;SDS011;10925;49.102;-0.370;2023-02-15T17:22:25;39.00;;;24.77;;
21527;SDS011;10925;49.102;-0.370;2023-02-15T17:24:59;36.03;;;23.30;;
21527;SDS011;10925;49.102;-0.370;2023-02-15T17:27:26;40.55;;;24.85;;
21527;SDS011;10925;49.102;-0.370;2023-02-15T17:29:58;40.85;;;24.40;;
21527;SDS011;10925;49.102;-0.370;2023-02-15T17:32:27;36.15;;;23.15;;
21527;SDS011;10925;49.102;-0.370;2023-02-15T17:37:45;42.75;;;27.95;;
21527;SDS011;10925;49.102;-0.370;2023-02-15T17:40:24;72.00;;;42.23;;
21527;SDS011;10925;49.102;-0.370;2023-02-15T17:42:50;100.50;;;50.92;;
21527;SDS011;10925;49.102;-0.370;2023-02-15T17:45:17;165.90;;;79.55;;
21527;SDS011;10925;49.102;-0.370;2023-02-15T17:47:44;106.45;;;55.00;;
21527;SDS011;10925;49.102;-0.370;2023-02-15T17:50:21;69.85;;;40.35;;
21527;SDS011;10925;49.102;-0.370;2023-02-15T17:52:47;53.30;;;33.65;;
21527;SDS011;10925;49.102;-0.370;2023-02-15T17:55:15;49.17;;;29.42;;
21527;SDS011;10925;49.102;-0.370;2023-02-15T18:03:10;40.00;;;25.33;;
21527;SDS011;10925;49.102;-0.370;2023-02-15T18:05:55;44.05;;;25.48;;
21527;SDS011;10925;49.102;-0.370;2023-02-15T18:08:41;41.00;;;26.10;;
21527;SDS011;10925;49.102;-0.370;2023-02-15T18:11:26;41.30;;;26.63;;
21527;SDS011;10925;49.102;-0.370;2023-02-15T18:14:04;45.05;;;29.10;;